Time;durP1;ratioP1;P1;durP2;ratioP2;P2;SDS_P1;SDS_P2;PMS_P1;PMS_P2;Temp;Humidity;BMP_temperature;BMP_pressure;BME280_temperature;BME280_humidity;BME280_pressure;Samples;Min_cycle;Max_cycle;Signal;HPM_P1;HPM_P2
2023/08/10 00:04:36;;;;;;;6.20;5.70;;;14.80;99.90;;;15.39;100.00;98320.72;10356241;28;20385;-68
2023/08/10 00:09:39;;;;;;;5.05;4.63;;;14.70;99.90;;;15.26;100.00;98324.44;10357658;28;20312;-68
2023/08/10 00:14:43;;;;;;;5.78;4.93;;;14.60;99.90;;;15.23;100.00;98320.84;10359257;28;20249;-68
2023/08/10 00:19:47;;;;;;;6.40;5.85;;;14.50;99.90;;;15.12;100.00;98322.91;10358410;28;20234;-69
2023/08/10 00:24:50;;;;;;;5.45;5.05;;;14.40;99.90;;;15.07;100.00;98319.22;10356240;28;20226;-68
2023/08/10 00:29:54;;;;;;;4.97;4.57;;;14.40;99.90;;;15.04;100.00;98319.09;10358106;28;20230;-68
2023/08/10 00:34:57;;;;;;;6.90;4.70;;;14.30;99.90;;;14.86;100.00;98330.28;10358775;28;20268;-69
2023/08/10 00:40:00;;;;;;;4.35;4.05;;;14.10;99.90;;;14.70;100.00;98320.06;10358243;28;20233;-68
2023/08/10 00:45:09;;;;;;;4.35;3.97;;;14.00;99.90;;;14.68;100.00;98316.53;10363532;28;20326;-69
2023/08/10 00:50:12;;;;;;;4.70;4.30;;;13.90;99.90;;;14.60;100.00;98323.00;10362867;28;20237;-68
2023/08/10 00:55:15;;;;;;;37.90;5.78;;;13.90;99.90;;;14.61;100.00;98332.47;10356935;28;20230;-70
2023/08/10 01:00:20;;;;;;;5.53;4.43;;;13.90;99.90;;;14.40;100.00;98330.59;10364013;28;20241;-70
2023/08/10 01:05:23;;;;;;;39.45;6.82;;;13.70;99.90;;;14.36;100.00;98335.50;10352021;28;21197;-70
2023/08/10 01:10:36;;;;;;;5.43;4.93;;;13.80;99.90;;;14.35;100.00;98333.72;10359370;28;20238;-69
2023/08/10 01:15:49;;;;;;;5.82;5.32;;;13.70;99.90;;;14.35;100.00;98329.47;10343930;28;20218;-69
2023/08/10 01:20:54;;;;;;;5.53;5.03;;;13.70;99.90;;;14.47;100.00;98333.47;10360620;28;20222;-69
2023/08/10 01:26:00;;;;;;;20.27;5.95;;;13.80;99.90;;;14.37;100.00;98333.00;10361283;28;20618;-69
2023/08/10 01:31:03;;;;;;;10.07;5.28;;;13.70;99.90;;;14.33;100.00;98343.94;10362839;28;20226;-69
2023/08/10 01:36:06;;;;;;;5.70;4.95;;;13.70;99.90;;;14.22;100.00;98336.50;10359097;28;20601;-70
2023/08/10 01:41:11;;;;;;;50.90;6.55;;;13.60;99.90;;;14.09;100.00;98342.72;10364784;28;20234;-69
2023/08/10 01:46:18;;;;;;;5.80;5.38;;;13.40;99.90;;;14.05;100.00;98344.25;10369830;28;20588;-69
2023/08/10 01:51:24;;;;;;;5.20;4.72;;;13.40;99.90;;;14.06;100.00;98334.84;10371006;28;20253;-69
2023/08/10 01:56:29;;;;;;;5.35;4.95;;;13.40;99.90;;;14.12;100.00;98346.31;10362855;28;20222;-69
2023/08/10 02:01:32;;;;;;;8.85;5.68;;;13.50;99.90;;;14.10;100.00;98347.03;10363650;28;20222;-69
2023/08/10 02:06:39;;;;;;;14.43;5.47;;;13.50;99.90;;;14.16;100.00;98352.47;10363113;28;20250;-69
2023/08/10 02:11:44;;;;;;;6.32;5.70;;;13.50;99.90;;;14.15;100.00;98348.16;10365243;28;20226;-69
2023/08/10 02:16:47;;;;;;;5.03;4.63;;;13.50;99.90;;;14.06;100.00;98352.84;10347587;28;20317;-68
2023/08/10 02:21:50;;;;;;;5.55;5.13;;;13.30;99.90;;;14.04;100.00;98341.59;10364786;28;20605;-68
2023/08/10 02:26:55;;;;;;;5.85;5.07;;;13.40;99.90;;;14.00;100.00;98349.97;10366468;28;20802;-69
2023/08/10 02:31:59;;;;;;;6.95;5.70;;;13.30;99.90;;;14.03;100.00;98338.13;10364388;28;20245;-68
2023/08/10 02:37:02;;;;;;;6.07;5.50;;;13.40;99.90;;;13.83;100.00;98346.50;10361402;28;20334;-69
2023/08/10 02:42:07;;;;;;;7.20;5.13;;;13.20;99.90;;;13.88;100.00;98352.78;10364661;28;20254;-69
2023/08/10 02:47:10;;;;;;;9.93;5.40;;;13.20;99.90;;;13.85;100.00;98363.78;10377921;28;20317;-69
2023/08/10 02:52:13;;;;;;;6.05;5.50;;;13.10;99.90;;;13.78;100.00;98358.22;10363927;28;20240;-68
2023/08/10 02:57:17;;;;;;;6.13;5.53;;;13.00;99.90;;;13.71;100.00;98360.47;10369648;28;20236;-69
2023/08/10 03:02:21;;;;;;;10.75;4.70;;;12.90;99.90;;;13.83;100.00;98369.63;10369237;28;20230;-69
2023/08/10 03:07:26;;;;;;;6.28;4.82;;;12.90;99.90;;;13.41;100.00;98356.28;10362314;28;20234;-69
2023/08/10 03:12:31;;;;;;;11.32;4.97;;;12.70;99.90;;;13.37;100.00;98365.50;10360931;28;20226;-69
2023/08/10 03:17:34;;;;;;;20.35;6.13;;;12.60;99.90;;;13.17;100.00;98366.06;10365483;28;20226;-69
2023/08/10 03:22:37;;;;;;;34.08;8.07;;;12.50;99.90;;;13.01;100.00;98367.75;10365159;28;20739;-69
2023/08/10 03:27:42;;;;;;;6.22;5.72;;;12.40;99.90;;;13.12;100.00;98376.06;10364580;28;20238;-68
2023/08/10 03:32:45;;;;;;;7.13;6.50;;;12.60;99.90;;;13.25;100.00;98380.22;10373932;28;20226;-68
2023/08/10 03:37:48;;;;;;;9.02;7.03;;;12.60;99.90;;;13.32;100.00;98377.19;10364597;28;20317;-68
2023/08/10 03:42:53;;;;;;;10.30;6.68;;;12.60;99.90;;;13.28;100.00;98381.28;10368045;28;20226;-68
2023/08/10 03:47:56;;;;;;;5.88;5.40;;;12.50;99.90;;;13.21;100.00;98378.25;10370155;28;20693;-68
2023/08/10 03:52:59;;;;;;;5.80;5.22;;;12.40;99.90;;;13.15;100.00;98388.19;10369654;28;20653;-68
2023/08/10 03:58:04;;;;;;;5.03;4.72;;;12.50;99.90;;;12.99;100.00;98386.44;10359987;28;20257;-70
2023/08/10 04:03:07;;;;;;;19.48;5.72;;;12.30;99.90;;;13.02;100.00;98384.94;10372746;28;20232;-68
2023/08/10 04:08:11;;;;;;;5.05;4.55;;;12.40;99.90;;;13.06;100.00;98386.00;10360605;28;20247;-68
2023/08/10 04:13:15;;;;;;;5.47;4.90;;;12.40;99.90;;;13.01;100.00;98396.00;10420136;22;20264;-71
2023/08/10 04:18:18;;;;;;;66.70;9.07;;;12.40;99.90;;;13.03;100.00;98391.84;10417962;28;20320;-70
2023/08/10 04:23:22;;;;;;;6.60;5.65;;;12.30;99.90;;;13.04;100.00;98385.03;10421211;28;20245;-70
2023/08/10 04:28:26;;;;;;;18.13;6.28;;;12.20;99.90;;;12.98;100.00;98390.69;10401619;28;20625;-70
2023/08/10 04:33:31;;;;;;;12.50;5.47;;;12.20;99.90;;;12.76;100.00;98397.97;10404070;28;20929;-71
2023/08/10 04:38:35;;;;;;;4.78;4.20;;;12.00;99.90;;;12.75;100.00;98393.66;10399135;28;20229;-72
2023/08/10 04:43:39;;;;;;;21.80;5.32;;;12.00;99.90;;;12.89;100.00;98395.31;10390520;28;20253;-73
2023/08/10 04:48:43;;;;;;;4.70;4.30;;;12.10;99.90;;;12.75;100.00;98401.34;10398936;28;20233;-70
2023/08/10 04:53:46;;;;;;;5.53;4.00;;;12.10;99.90;;;12.93;100.00;98417.75;10392264;28;20240;-71
2023/08/10 04:58:51;;;;;;;4.28;3.97;;;12.20;99.90;;;12.78;100.00;98419.47;10399684;28;20218;-72
2023/08/10 05:03:54;;;;;;;10.70;3.97;;;12.10;99.90;;;12.62;100.00;98420.28;10398037;28;20324;-71
2023/08/10 05:08:57;;;;;;;6.35;3.50;;;11.90;99.90;;;12.65;100.00;98414.41;10417415;28;20743;-71
2023/08/10 05:14:02;;;;;;;4.22;2.88;;;11.90;99.90;;;12.62;100.00;98416.03;10451061;28;20232;-72
2023/08/10 05:19:05;;;;;;;12.27;4.70;;;11.90;99.90;;;12.54;100.00;98422.41;10446678;28;20217;-72
2023/08/10 05:24:08;;;;;;;11.23;4.63;;;11.80;99.90;;;12.75;100.00;98429.56;10439928;28;20240;-71
2023/08/10 05:29:12;;;;;;;4.95;3.72;;;12.00;99.90;;;12.93;100.00;98422.91;10431792;28;20708;-72
2023/08/10 05:34:16;;;;;;;5.32;3.10;;;12.20;99.90;;;12.92;100.00;98435.66;10441791;28;20249;-72
2023/08/10 05:39:19;;;;;;;3.65;3.22;;;12.20;99.90;;;12.99;100.00;98435.19;10448043;28;20259;-71
2023/08/10 05:44:23;;;;;;;3.17;2.97;;;12.20;99.90;;;13.10;100.00;98439.25;10442790;28;20310;-71
2023/08/10 05:49:26;;;;;;;7.40;3.90;;;12.30;99.90;;;13.04;100.00;98436.34;10445337;28;20234;-72
2023/08/10 05:54:30;;;;;;;3.85;3.65;;;12.30;99.90;;;13.03;100.00;98434.59;10447460;28;20790;-71
2023/08/10 05:59:34;;;;;;;4.18;3.88;;;12.40;99.90;;;14.43;100.00;98433.63;10442384;28;20315;-71
2023/08/10 06:04:37;;;;;;;3.33;3.10;;;13.80;99.90;;;15.50;96.85;98421.69;10431460;28;20679;-71
2023/08/10 06:09:41;;;;;;;3.30;3.08;;;14.60;99.90;;;16.51;87.85;98426.25;10432919;28;20230;-72
2023/08/10 06:14:46;;;;;;;3.65;3.35;;;15.40;99.90;;;17.51;85.81;98422.56;10435126;28;20723;-71
2023/08/10 06:19:52;;;;;;;2.97;2.78;;;15.90;99.90;;;18.28;81.24;98421.16;10417317;28;20350;-69
2023/08/10 06:24:55;;;;;;;2.60;2.40;;;16.30;99.90;;;18.42;77.36;98427.72;10432123;28;20228;-70
2023/08/10 06:30:01;;;;;;;3.00;2.80;;;16.50;99.90;;;18.74;77.01;98451.28;10423203;28;20225;-74
2023/08/10 06:35:04;;;;;;;3.10;2.90;;;16.80;99.90;;;17.75;80.37;98445.94;10433754;28;20263;-70
2023/08/10 06:40:09;;;;;;;2.83;2.63;;;16.20;99.90;;;17.19;84.00;98462.66;10437522;28;20225;-72
2023/08/10 06:45:14;;;;;;;2.72;2.53;;;15.70;99.90;;;17.00;86.53;98469.66;10428316;28;20320;-71
2023/08/10 06:50:17;;;;;;;3.00;2.80;;;15.50;99.90;;;16.86;87.36;98473.38;10427728;28;21777;-72
2023/08/10 06:55:20;;;;;;;2.90;2.70;;;15.50;99.90;;;16.71;88.10;98457.19;10428149;28;20225;-71
2023/08/10 07:00:25;;;;;;;2.95;2.75;;;15.40;99.90;;;16.73;88.68;98460.72;10431472;28;20223;-70
2023/08/10 07:05:31;;;;;;;3.33;3.00;;;15.60;99.90;;;16.80;89.39;98457.63;10423395;28;20232;-71
2023/08/10 07:10:34;;;;;;;3.42;2.95;;;15.70;99.90;;;16.91;86.19;98458.94;10431926;28;20777;-72
2023/08/10 07:15:40;;;;;;;3.00;2.65;;;15.80;99.90;;;17.22;85.27;98457.59;10428497;28;20232;-72
2023/08/10 07:20:44;;;;;;;2.75;2.30;;;16.00;99.90;;;16.98;86.59;98457.50;10438893;28;20296;-73
2023/08/10 07:25:47;;;;;;;3.15;2.40;;;15.90;99.90;;;17.20;88.20;98454.09;10441514;28;20225;-70
2023/08/10 07:30:53;;;;;;;3.00;2.53;;;16.10;99.90;;;17.63;86.89;98456.69;10431634;28;20220;-73
2023/08/10 07:35:59;;;;;;;3.60;2.35;;;16.50;99.90;;;17.67;82.29;98453.38;10432650;28;20304;-70
2023/08/10 07:41:02;;;;;;;2.70;2.50;;;16.60;99.90;;;17.85;85.37;98458.41;10438557;28;20522;-70
2023/08/10 07:46:06;;;;;;;2.53;2.33;;;16.70;99.90;;;18.29;80.79;98463.50;10431963;28;20714;-71
2023/08/10 07:51:10;;;;;;;2.60;2.40;;;17.10;99.90;;;18.46;79.08;98465.84;10434427;28;20239;-70
2023/08/10 07:56:13;;;;;;;2.58;2.42;;;17.30;99.90;;;18.56;79.46;98466.16;10429258;28;20229;-71
2023/08/10 08:01:17;;;;;;;2.92;2.47;;;17.40;99.90;;;18.84;78.96;98471.50;10439199;28;20685;-73
2023/08/10 08:06:21;;;;;;;3.10;2.70;;;17.60;99.90;;;18.97;77.72;98466.75;10432267;28;20571;-70
2023/08/10 08:11:24;;;;;;;3.10;2.90;;;17.70;99.90;;;19.07;79.67;98474.00;10433816;28;20235;-74
2023/08/10 08:16:29;;;;;;;3.38;3.08;;;17.90;99.90;;;19.15;79.10;98474.28;10427949;28;20225;-71
2023/08/10 08:21:35;;;;;;;3.15;2.92;;;18.10;99.90;;;19.32;76.53;98468.78;10433699;28;20233;-71
2023/08/10 08:26:40;;;;;;;3.28;2.53;;;18.10;99.90;;;19.39;77.73;98469.88;10429701;28;20655;-69
2023/08/10 08:31:45;;;;;;;3.15;2.88;;;18.20;99.90;;;19.53;76.67;98472.91;10420237;28;20233;-70
2023/08/10 08:36:48;;;;;;;3.60;2.85;;;18.50;99.90;;;20.08;75.76;98471.13;10422397;28;20304;-70
2023/08/10 08:41:51;;;;;;;2.72;2.53;;;18.90;99.90;;;20.74;74.20;98465.22;10427451;28;20229;-73
2023/08/10 08:46:56;;;;;;;3.75;2.80;;;19.60;99.90;;;21.33;72.06;98456.34;10429223;28;20213;-69
2023/08/10 08:52:00;;;;;;;2.50;2.30;;;20.20;99.90;;;21.64;69.80;98461.44;10429359;28;20620;-69
2023/08/10 08:57:03;;;;;;;2.45;2.20;;;20.40;99.90;;;21.94;70.84;98443.88;10425631;28;20221;-68
2023/08/10 09:02:10;;;;;;;2.60;2.40;;;20.70;99.90;;;22.34;66.99;98439.50;10426567;28;20229;-68
2023/08/10 09:07:20;;;;;;;2.88;2.45;;;21.30;99.90;;;22.72;63.90;98442.00;10421839;28;20232;-71
2023/08/10 09:12:32;;;;;;;2.90;2.70;;;21.60;99.90;;;22.85;67.33;98443.06;10422176;28;20233;-68
2023/08/10 09:17:39;;;;;;;3.42;2.60;;;21.80;99.90;;;23.04;61.96;98429.53;10419293;28;20227;-69
2023/08/10 09:22:43;;;;;;;2.75;2.50;;;22.20;99.90;;;23.28;61.66;98423.81;10418151;28;20606;-69
2023/08/10 09:27:47;;;;;;;2.88;2.67;;;22.50;99.90;;;23.12;59.50;98420.13;10427241;28;20239;-68
2023/08/10 09:32:51;;;;;;;2.67;2.42;;;22.50;99.90;;;23.52;58.90;98412.91;10421437;28;20228;-68
2023/08/10 09:38:01;;;;;;;2.60;2.40;;;22.80;99.90;;;23.62;60.81;98406.06;10428320;28;20723;-68
2023/08/10 09:43:10;;;;;;;2.67;2.47;;;22.90;99.90;;;23.81;56.59;98409.84;10408356;28;20701;-68
2023/08/10 09:48:17;;;;;;;2.80;2.53;;;23.20;99.90;;;23.92;56.50;98397.81;10426860;28;20241;-70
2023/08/10 09:53:20;;;;;;;3.13;2.58;;;23.10;99.90;;;24.30;56.30;98399.13;10427152;28;20719;-69
2023/08/10 09:58:24;;;;;;;3.17;2.80;;;23.70;99.90;;;24.88;53.86;98390.13;10428124;28;20716;-68
2023/08/10 10:03:31;;;;;;;3.30;3.03;;;24.50;99.90;;;24.89;53.81;98385.78;10431330;28;20278;-72
2023/08/10 10:08:37;;;;;;;2.92;2.70;;;24.30;99.90;;;24.82;56.22;98386.59;10434615;28;20228;-68
2023/08/10 10:13:41;;;;;;;3.15;2.72;;;24.30;99.90;;;24.56;54.49;98394.22;10474075;22;20237;-70
2023/08/10 10:18:46;;;;;;;3.17;2.88;;;24.10;99.90;;;24.43;56.15;98393.19;10474040;28;20702;-72
2023/08/10 10:23:52;;;;;;;2.58;2.45;;;23.80;99.90;;;24.71;53.92;98384.75;10446592;28;20711;-69
2023/08/10 10:29:11;;;;;;;3.10;2.90;;;24.20;99.90;;;24.13;55.65;98383.25;10405069;28;20303;-72
2023/08/10 10:34:18;;;;;;;4.22;3.00;;;23.50;99.90;;;24.45;56.35;98379.28;10419928;28;20274;-69
2023/08/10 10:39:22;;;;;;;3.35;2.70;;;23.90;99.90;;;24.32;59.93;98371.25;10424507;28;20231;-72
2023/08/10 10:45:03;;;;;;;3.13;2.90;;;23.80;99.90;;;24.46;56.71;98373.19;10417039;28;20235;-69
2023/08/10 10:50:19;;;;;;;3.13;2.72;;;23.80;99.90;;;24.82;53.98;98350.00;10424126;28;20722;-70
2023/08/10 10:55:23;;;;;;;2.90;2.70;;;24.10;99.90;;;24.84;55.90;98348.25;10422797;28;20236;-70
2023/08/10 11:00:27;;;;;;;2.83;2.63;;;24.10;99.90;;;24.50;52.55;98347.97;10422163;28;20228;-72
2023/08/10 11:05:31;;;;;;;3.08;2.78;;;23.80;99.90;;;24.81;52.38;98343.88;10420380;28;20232;-71
2023/08/10 11:10:37;;;;;;;2.95;2.65;;;24.10;99.60;;;24.48;52.78;98334.00;10422085;28;20397;-71
2023/08/10 11:15:40;;;;;;;2.95;2.63;;;23.80;99.90;;;24.44;52.62;98324.38;10426295;28;20217;-70
2023/08/10 11:20:47;;;;;;;3.15;2.67;;;23.60;99.60;;;24.46;52.67;98323.50;10433969;28;20221;-70
2023/08/10 11:25:52;;;;;;;2.83;2.63;;;23.90;99.80;;;24.63;53.14;98323.66;10444148;28;20228;-71
2023/08/10 11:31:02;;;;;;;2.65;2.47;;;24.00;99.90;;;24.59;52.25;98310.56;10426782;28;20766;-70
2023/08/10 11:36:07;;;;;;;3.45;2.63;;;23.90;98.80;;;24.51;52.15;98313.13;10440864;28;20641;-71
2023/08/10 11:41:11;;;;;;;2.75;2.55;;;23.80;98.90;;;24.45;49.84;98315.69;10436099;28;20591;-71
2023/08/10 11:46:18;;;;;;;2.80;2.60;;;23.70;97.10;;;24.37;49.46;98312.06;10427587;28;20232;-71
2023/08/10 11:51:23;;;;;;;2.88;2.67;;;23.70;97.10;;;24.22;49.22;98307.59;10439156;28;20304;-71
2023/08/10 11:56:33;;;;;;;2.80;2.60;;;23.50;96.60;;;23.96;46.45;98296.88;10432890;28;20229;-71
2023/08/10 12:01:45;;;;;;;2.70;2.50;;;23.50;93.90;;;24.04;47.17;98296.09;10433148;28;20732;-71
2023/08/10 12:06:50;;;;;;;2.63;2.42;;;23.50;95.10;;;24.00;45.75;98307.34;10431899;28;20312;-71
2023/08/10 12:11:55;;;;;;;2.40;2.30;;;23.40;93.40;;;24.15;46.76;98319.72;10429017;28;20232;-71
2023/08/10 12:16:59;;;;;;;2.78;2.58;;;23.50;94.30;;;24.17;44.98;98307.53;10431195;28;20219;-71
2023/08/10 12:22:07;;;;;;;2.60;2.40;;;23.60;93.00;;;24.43;44.02;98305.19;10434815;28;20326;-72
2023/08/10 12:27:10;;;;;;;3.00;2.70;;;23.80;92.20;;;24.25;46.16;98302.38;10431792;28;20232;-70
2023/08/10 12:32:14;;;;;;;2.70;2.50;;;23.70;93.70;;;24.42;44.73;98294.72;10424037;28;20232;-71
2023/08/10 12:37:18;;;;;;;2.55;2.35;;;23.80;92.60;;;24.49;45.02;98293.91;10435178;28;20228;-71
2023/08/10 12:42:21;;;;;;;2.47;2.38;;;23.80;92.50;;;24.54;45.02;98291.34;10430956;28;20814;-72
2023/08/10 12:47:24;;;;;;;2.80;2.53;;;23.90;92.50;;;24.66;42.20;98281.00;10435800;28;20256;-73
2023/08/10 12:52:29;;;;;;;2.30;2.20;;;24.00;91.10;;;24.46;42.61;98283.44;10428452;28;20235;-71
2023/08/10 12:57:32;;;;;;;2.63;2.42;;;23.80;90.50;;;24.40;42.25;98292.06;10417795;28;20231;-69
2023/08/10 13:02:37;;;;;;;2.60;2.38;;;23.60;90.60;;;24.44;42.43;98287.81;10423359;28;20220;-71
2023/08/10 13:07:44;;;;;;;2.80;2.50;;;23.80;90.60;;;24.48;44.16;98287.81;10426599;28;20235;-72
2023/08/10 13:12:47;;;;;;;2.92;2.70;;;23.80;91.50;;;24.38;43.09;98292.91;10414413;28;20766;-70
2023/08/10 13:17:50;;;;;;;2.90;2.63;;;23.80;90.70;;;24.66;43.94;98287.09;10423103;28;20718;-71
2023/08/10 13:22:55;;;;;;;3.17;2.70;;;24.00;91.30;;;24.43;44.49;98293.88;10424008;28;20233;-71
2023/08/10 13:27:58;;;;;;;2.55;2.35;;;23.80;92.30;;;24.57;42.93;98292.25;10422996;28;20497;-71
2023/08/10 13:33:01;;;;;;;2.75;2.53;;;23.90;90.90;;;24.45;42.33;98289.53;10423154;28;20228;-71
2023/08/10 13:38:06;;;;;;;2.90;2.70;;;23.70;90.30;;;24.67;44.61;98288.00;10426485;28;20262;-71
2023/08/10 13:43:10;;;;;;;2.80;2.60;;;23.90;91.90;;;24.60;43.16;98273.09;10422214;28;20613;-71
2023/08/10 13:48:14;;;;;;;2.70;2.50;;;23.90;90.90;;;24.43;43.61;98283.41;10433529;28;20234;-71
2023/08/10 13:53:19;;;;;;;2.55;2.35;;;23.60;91.10;;;24.37;43.06;98278.97;10421888;28;20229;-71
2023/08/10 13:58:22;;;;;;;2.80;2.60;;;23.60;90.50;;;24.16;43.38;98279.66;10428227;28;20225;-71
2023/08/10 14:03:25;;;;;;;2.88;2.67;;;23.50;90.60;;;24.41;44.60;98280.78;10424469;28;20236;-70
2023/08/10 14:08:30;;;;;;;2.72;2.47;;;23.60;91.90;;;24.45;44.44;98281.69;10428917;28;20653;-71
2023/08/10 14:13:34;;;;;;;2.80;2.60;;;23.70;91.50;;;24.59;42.80;98272.22;10419668;28;20228;-72
2023/08/10 14:18:37;;;;;;;2.83;2.63;;;23.90;90.10;;;24.53;43.12;98272.19;10421596;28;20224;-70
2023/08/10 14:23:42;;;;;;;3.00;2.72;;;23.80;90.10;;;24.33;43.80;98268.50;10419318;28;20235;-72
2023/08/10 14:28:45;;;;;;;2.83;2.58;;;23.60;90.70;;;24.52;43.06;98266.94;10428655;28;20233;-70
2023/08/10 14:33:48;;;;;;;2.80;2.60;;;23.80;90.60;;;24.76;44.28;98267.13;10412874;28;20623;-68
2023/08/10 14:38:53;;;;;;;3.10;2.70;;;24.00;91.50;;;24.54;43.32;98271.31;10417588;28;20322;-70
2023/08/10 14:43:56;;;;;;;2.90;2.70;;;23.80;89.90;;;24.69;44.50;98263.56;10425462;28;20445;-71
2023/08/10 14:49:02;;;;;;;2.80;2.60;;;23.90;90.90;;;24.67;43.16;98256.63;10431594;28;20344;-70
2023/08/10 14:54:07;;;;;;;2.70;2.50;;;23.90;90.40;;;24.73;43.21;98261.88;10439002;28;20311;-71
2023/08/10 14:59:10;;;;;;;2.47;2.28;;;23.90;90.30;;;24.60;42.12;98255.69;10443921;28;20220;-71
2023/08/10 15:04:14;;;;;;;2.80;2.60;;;23.80;88.70;;;24.53;43.00;98261.72;10440586;28;20263;-71
2023/08/10 15:09:21;;;;;;;2.50;2.40;;;23.80;90.10;;;24.46;41.43;98262.53;10430222;28;20220;-72
2023/08/10 15:14:24;;;;;;;2.63;2.42;;;23.70;87.50;;;24.53;41.24;98264.34;10426018;28;20235;-74
2023/08/10 15:19:27;;;;;;;3.22;2.92;;;23.80;87.10;;;24.53;40.75;98253.91;10426822;28;20305;-72
2023/08/10 15:24:31;;;;;;;2.90;2.70;;;23.70;86.90;;;24.69;39.20;98260.09;10437310;28;20750;-72
2023/08/10 15:29:35;;;;;;;2.92;2.65;;;23.90;83.80;;;24.51;38.58;98260.84;10441602;28;20319;-73
2023/08/10 15:34:38;;;;;;;3.00;2.80;;;23.70;82.00;;;24.40;38.06;98247.63;10434680;28;20228;-71
2023/08/10 15:39:42;;;;;;;2.90;2.70;;;23.60;82.30;;;24.33;39.18;98250.22;10433927;28;20229;-72
2023/08/10 15:44:47;;;;;;;2.60;2.47;;;23.50;83.70;;;24.27;40.65;98254.50;10432195;28;20304;-72
2023/08/10 15:49:50;;;;;;;2.60;2.40;;;23.60;86.10;;;24.35;40.37;98238.91;10430655;28;20221;-72
2023/08/10 15:54:54;;;;;;;2.78;2.58;;;23.60;84.70;;;24.36;40.70;98239.78;10408831;28;20237;-72
2023/08/10 15:59:58;;;;;;;2.70;2.50;;;23.50;86.50;;;24.27;40.43;98231.00;10415662;28;20341;-72
2023/08/10 16:05:01;;;;;;;2.50;2.30;;;23.60;85.20;;;24.44;40.05;98235.53;10415114;28;20220;-69
2023/08/10 16:10:06;;;;;;;2.83;2.58;;;23.60;85.10;;;24.28;41.82;98232.72;10420273;28;20235;-70
2023/08/10 16:15:10;;;;;;;2.58;2.38;;;23.50;88.60;;;24.26;42.77;98231.84;10437602;22;1058053;-68
2023/08/10 16:20:14;;;;;;;2.90;2.70;;;23.50;88.80;;;24.23;42.98;98229.19;10422597;28;20320;-69
2023/08/10 16:25:23;;;;;;;2.85;2.65;;;23.50;89.00;;;24.20;43.95;98236.16;10395769;28;20717;-69
2023/08/10 16:30:26;;;;;;;2.90;2.70;;;23.50;90.30;;;24.21;44.02;98236.19;10382904;28;20237;-68
2023/08/10 16:35:30;;;;;;;2.50;2.30;;;23.50;90.20;;;24.10;44.59;98231.72;10375018;28;20233;-69
2023/08/10 16:40:34;;;;;;;2.30;2.10;;;23.30;91.20;;;24.03;44.22;98235.97;10376924;28;20224;-68
2023/08/10 16:45:37;;;;;;;2.55;2.45;;;23.20;90.40;;;23.99;44.68;98242.06;10372956;28;20779;-67
2023/08/10 16:50:41;;;;;;;2.15;1.95;;;23.10;90.60;;;23.89;45.26;98248.91;10376364;28;20233;-69
2023/08/10 16:55:45;;;;;;;2.80;2.60;;;23.10;92.00;;;23.79;46.65;98252.28;10376319;28;20268;-69
2023/08/10 17:00:48;;;;;;;2.85;2.65;;;22.90;92.80;;;23.74;46.64;98249.63;10390201;28;20232;-69
2023/08/10 17:05:51;;;;;;;2.58;2.38;;;22.90;92.10;;;23.74;46.69;98254.84;10390066;28;20720;-69
2023/08/10 17:10:56;;;;;;;10.38;9.43;;;22.90;92.60;;;23.64;47.19;98246.88;10386567;28;20234;-67
2023/08/10 17:15:59;;;;;;;8.18;7.45;;;22.80;92.70;;;23.59;47.34;98258.13;10393248;28;20316;-66
2023/08/10 17:21:02;;;;;;;8.25;7.50;;;22.80;93.60;;;23.50;48.75;98249.31;10384348;28;20240;-67
2023/08/10 17:26:07;;;;;;;16.45;14.90;;;22.60;94.10;;;23.43;48.78;98258.78;10391376;28;20237;-67
2023/08/10 17:31:11;;;;;;;10.40;9.60;;;22.50;93.50;;;23.32;50.24;98260.38;10387500;28;20292;-66
2023/08/10 17:36:17;;;;;;;5.75;5.25;;;22.40;95.50;;;23.11;52.40;98254.03;10384665;28;20239;-70
2023/08/10 17:41:21;;;;;;;5.80;5.30;;;22.20;97.40;;;22.98;52.70;98249.53;10395409;28;20684;-68
2023/08/10 17:46:26;;;;;;;4.65;4.25;;;22.00;96.70;;;22.85;52.95;98255.38;10390135;28;20537;-68
2023/08/10 17:51:29;;;;;;;3.78;3.47;;;21.90;97.30;;;22.71;53.22;98260.38;10391356;28;20241;-68
2023/08/10 17:56:34;;;;;;;4.20;3.90;;;21.70;97.80;;;22.57;53.94;98260.16;10391222;28;20280;-69
2023/08/10 18:01:37;;;;;;;3.30;3.00;;;21.60;97.90;;;22.37;55.22;98259.81;10394836;28;20226;-68
2023/08/10 18:06:40;;;;;;;3.45;3.15;;;21.40;98.70;;;22.23;55.11;98261.31;10391832;28;20237;-68
2023/08/10 18:12:00;;;;;;;5.43;4.93;;;21.30;99.90;;;22.08;54.44;98261.03;10390385;28;20232;-71
2023/08/10 18:17:03;;;;;;;3.15;2.67;;;21.10;98.10;;;21.92;56.18;98275.47;10391494;28;20225;-69
2023/08/10 18:22:07;;;;;;;3.60;3.30;;;20.90;99.70;;;21.67;59.93;98279.34;10388702;28;20277;-69
2023/08/10 18:27:13;;;;;;;3.83;3.53;;;20.70;99.90;;;21.43;64.70;98272.78;10384515;28;20230;-68
2023/08/10 18:32:17;;;;;;;3.35;3.03;;;20.50;99.90;;;21.25;65.50;98277.56;10382109;28;20291;-69
2023/08/10 18:43:52;;;;;;;3.85;3.47;;;20.10;99.90;;;20.81;70.00;98293.94;10425335;28;20562;-69
2023/08/10 18:48:55;;;;;;;5.13;3.33;;;19.90;99.90;;;20.64;72.77;98306.50;10427885;28;20240;-69
2023/08/10 18:53:58;;;;;;;4.15;3.75;;;19.70;99.90;;;20.47;73.35;98312.97;10436881;28;20734;-69
2023/08/10 18:59:02;;;;;;;4.25;3.40;;;19.50;99.90;;;20.31;75.79;98326.41;10435190;28;20624;-69
2023/08/10 19:04:06;;;;;;;4.22;3.53;;;19.30;99.90;;;20.13;76.21;98330.28;10441370;28;20233;-69
2023/08/10 19:09:10;;;;;;;5.07;3.90;;;19.20;99.90;;;19.99;77.74;98334.19;10432539;28;20231;-68
2023/08/10 19:14:14;;;;;;;5.15;4.10;;;19.00;99.90;;;19.75;78.81;98332.69;10433244;28;20234;-69
2023/08/10 19:19:18;;;;;;;3.67;3.25;;;18.80;99.90;;;19.66;78.88;98348.00;10428575;28;20232;-69
2023/08/10 19:24:21;;;;;;;4.30;3.95;;;18.70;99.90;;;19.53;78.81;98348.44;10439002;28;20271;-69
2023/08/10 19:29:27;;;;;;;4.05;3.65;;;18.50;99.90;;;19.30;77.24;98351.22;10438696;28;20220;-69
2023/08/10 19:34:30;;;;;;;3.92;3.63;;;18.40;99.90;;;19.25;78.53;98357.09;10436027;28;20239;-69
2023/08/10 19:39:33;;;;;;;3.40;3.20;;;18.30;99.90;;;19.17;78.97;98366.31;10435190;28;20217;-68
2023/08/10 19:44:38;;;;;;;4.00;3.53;;;18.20;99.90;;;19.02;78.54;98369.31;10435467;28;20224;-68
2023/08/10 19:49:41;;;;;;;4.05;3.40;;;18.10;99.90;;;18.93;79.86;98375.09;10429615;28;20228;-69
2023/08/10 19:54:44;;;;;;;4.45;3.80;;;18.00;99.90;;;18.76;81.26;98378.84;10432495;28;21359;-68
2023/08/10 19:59:49;;;;;;;4.30;3.50;;;17.80;99.90;;;18.71;81.37;98383.81;10445008;28;20235;-68
2023/08/10 20:04:52;;;;;;;4.10;3.40;;;17.70;99.90;;;18.33;81.18;98385.13;10424781;28;20232;-68
2023/08/10 20:09:55;;;;;;;8.50;3.80;;;17.40;99.90;;;18.30;82.28;98387.59;10441077;28;20224;-69
2023/08/10 20:15:00;;;;;;;4.30;3.92;;;17.30;99.90;;;18.23;82.29;98382.22;10431536;28;20599;-68
2023/08/10 20:20:05;;;;;;;4.40;3.75;;;17.30;99.90;;;18.09;82.71;98379.97;10430583;28;20225;-69
2023/08/10 20:25:09;;;;;;;4.18;3.78;;;17.20;99.90;;;17.93;82.99;98381.09;10433575;28;20235;-68
2023/08/10 20:30:15;;;;;;;3.95;3.50;;;17.00;99.90;;;17.93;84.21;98381.97;10423982;28;20244;-68
2023/08/10 20:35:18;;;;;;;4.97;3.40;;;17.00;99.90;;;17.83;85.01;98390.25;10430968;28;20681;-69
2023/08/10 20:40:21;;;;;;;4.47;4.07;;;16.90;99.90;;;17.75;85.52;98395.09;10438048;28;20225;-69
2023/08/10 20:45:26;;;;;;;4.47;3.70;;;16.80;99.90;;;17.69;86.17;98392.28;10444190;28;20320;-68
2023/08/10 20:50:30;;;;;;;4.00;3.70;;;16.70;99.90;;;17.49;85.84;98396.69;10441324;28;20720;-68
2023/08/10 20:55:33;;;;;;;3.95;3.47;;;16.50;99.90;;;17.41;86.18;98407.56;10445018;28;20594;-68
2023/08/10 21:00:37;;;;;;;4.20;3.90;;;16.50;99.90;;;17.25;86.11;98406.06;10445549;28;20221;-68
2023/08/10 21:05:40;;;;;;;3.95;3.65;;;16.40;99.90;;;17.25;87.10;98411.22;10444783;28;20233;-69
2023/08/10 21:10:44;;;;;;;5.70;4.35;;;16.30;99.90;;;17.13;88.97;98416.78;10448969;28;20231;-69